sensor_id;sensor_type;location;lat;lon;timestamp;P1;durP1;ratioP1;P2;durP2;ratioP2
50968;SDS011;36982;51.474;7.228;2022-09-28T00:01:07;8.87;;;5.60;;
50968;SDS011;36982;51.474;7.228;2022-09-28T00:03:34;9.23;;;5.50;;
50968;SDS011;36982;51.474;7.228;2022-09-28T00:06:01;8.50;;;5.80;;
50968;SDS011;36982;51.474;7.228;2022-09-28T00:08:30;7.73;;;5.20;;
50968;SDS011;36982;51.474;7.228;2022-09-28T00:10:56;7.60;;;5.07;;
50968;SDS011;36982;51.474;7.228;2022-09-28T00:13:22;8.37;;;5.20;;
50968;SDS011;36982;51.474;7.228;2022-09-28T00:15:57;7.83;;;5.57;;
50968;SDS011;36982;51.474;7.228;2022-09-28T00:18:33;10.23;;;5.40;;
50968;SDS011;36982;51.474;7.228;2022-09-28T00:23:46;5.70;;;4.87;;
50968;SDS011;36982;51.474;7.228;2022-09-28T00:26:31;7.30;;;5.20;;
50968;SDS011;36982;51.474;7.228;2022-09-28T00:28:58;7.43;;;4.83;;
50968;SDS011;36982;51.474;7.228;2022-09-28T00:31:32;8.47;;;4.90;;
50968;SDS011;36982;51.474;7.228;2022-09-28T00:33:59;6.77;;;4.83;;
50968;SDS011;36982;51.474;7.228;2022-09-28T00:36:26;7.87;;;5.40;;
50968;SDS011;36982;51.474;7.228;2022-09-28T00:38:53;8.20;;;5.57;;
50968;SDS011;36982;51.474;7.228;2022-09-28T00:41:20;5.47;;;4.70;;
50968;SDS011;36982;51.474;7.228;2022-09-28T00:43:47;7.17;;;5.27;;
50968;SDS011;36982;51.474;7.228;2022-09-28T00:46:14;6.77;;;4.80;;
50968;SDS011;36982;51.474;7.228;2022-09-28T00:48:53;6.40;;;4.37;;
50968;SDS011;36982;51.474;7.228;2022-09-28T00:51:22;7.27;;;4.47;;
50968;SDS011;36982;51.474;7.228;2022-09-28T00:53:49;5.73;;;4.20;;
50968;SDS011;36982;51.474;7.228;2022-09-28T00:56:17;5.67;;;3.83;;
50968;SDS011;36982;51.474;7.228;2022-09-28T00:58:48;4.93;;;3.77;;
50968;SDS011;36982;51.474;7.228;2022-09-28T01:01:16;3.40;;;3.00;;
50968;SDS011;36982;51.474;7.228;2022-09-28T01:03:42;5.13;;;3.83;;
50968;SDS011;36982;51.474;7.228;2022-09-28T01:06:10;5.53;;;3.50;;
50968;SDS011;36982;51.474;7.228;2022-09-28T01:08:46;4.90;;;3.07;;
50968;SDS011;36982;51.474;7.228;2022-09-28T01:11:15;5.57;;;2.87;;
50968;SDS011;36982;51.474;7.228;2022-09-28T01:13:41;5.63;;;3.07;;
50968;SDS011;36982;51.474;7.228;2022-09-28T01:29:44;5.30;;;3.87;;
50968;SDS011;36982;51.474;7.228;2022-09-28T01:34:53;5.70;;;4.47;;
50968;SDS011;36982;51.474;7.228;2022-09-28T01:37:40;6.00;;;4.93;;
50968;SDS011;36982;51.474;7.228;2022-09-28T01:40:21;5.97;;;5.10;;
50968;SDS011;36982;51.474;7.228;2022-09-28T01:42:52;7.10;;;5.20;;
50968;SDS011;36982;51.474;7.228;2022-09-28T01:45:27;9.10;;;5.23;;
50968;SDS011;36982;51.474;7.228;2022-09-28T01:48:03;6.60;;;5.33;;
50968;SDS011;36982;51.474;7.228;2022-09-28T01:50:33;8.90;;;5.40;;
50968;SDS011;36982;51.474;7.228;2022-09-28T01:53:19;6.67;;;5.40;;
50968;SDS011;36982;51.474;7.228;2022-09-28T01:55:52;7.43;;;5.40;;
50968;SDS011;36982;51.474;7.228;2022-09-28T02:00:55;7.93;;;5.90;;
50968;SDS011;36982;51.474;7.228;2022-09-28T02:03:36;8.83;;;5.53;;
50968;SDS011;36982;51.474;7.228;2022-09-28T02:06:09;8.50;;;5.80;;
50968;SDS011;36982;51.474;7.228;2022-09-28T02:08:47;7.20;;;5.70;;
50968;SDS011;36982;51.474;7.228;2022-09-28T02:11:18;6.43;;;5.63;;
50968;SDS011;36982;51.474;7.228;2022-09-28T02:13:53;8.23;;;5.60;;
50968;SDS011;36982;51.474;7.228;2022-09-28T02:19:04;9.40;;;6.33;;
50968;SDS011;36982;51.474;7.228;2022-09-28T02:21:40;8.80;;;6.33;;
50968;SDS011;36982;51.474;7.228;2022-09-28T02:24:16;7.30;;;6.27;;
50968;SDS011;36982;51.474;7.228;2022-09-28T02:26:48;12.40;;;7.83;;
50968;SDS011;36982;51.474;7.228;2022-09-28T02:29:16;12.10;;;6.97;;
50968;SDS011;36982;51.474;7.228;2022-09-28T02:31:42;11.70;;;7.73;;
50968;SDS011;36982;51.474;7.228;2022-09-28T02:34:07;9.27;;;7.10;;
50968;SDS011;36982;51.474;7.228;2022-09-28T02:36:33;9.30;;;7.73;;
50968;SDS011;36982;51.474;7.228;2022-09-28T02:38:59;9.53;;;7.70;;
50968;SDS011;36982;51.474;7.228;2022-09-28T02:41:31;10.63;;;8.13;;
50968;SDS011;36982;51.474;7.228;2022-09-28T02:53:23;11.03;;;8.87;;
50968;SDS011;36982;51.474;7.228;2022-09-28T03:01:25;15.97;;;10.67;;
50968;SDS011;36982;51.474;7.228;2022-09-28T03:04:16;16.50;;;10.60;;
50968;SDS011;36982;51.474;7.228;2022-09-28T03:09:21;18.13;;;11.40;;
50968;SDS011;36982;51.474;7.228;2022-09-28T03:11:51;14.53;;;10.67;;
50968;SDS011;36982;51.474;7.228;2022-09-28T03:14:22;16.33;;;11.37;;
50968;SDS011;36982;51.474;7.228;2022-09-28T03:16:48;14.43;;;10.70;;
50968;SDS011;36982;51.474;7.228;2022-09-28T03:19:15;16.47;;;11.50;;
50968;SDS011;36982;51.474;7.228;2022-09-28T03:21:43;16.73;;;12.03;;
50968;SDS011;36982;51.474;7.228;2022-09-28T03:24:09;19.03;;;13.83;;
50968;SDS011;36982;51.474;7.228;2022-09-28T03:26:35;17.40;;;13.87;;
50968;SDS011;36982;51.474;7.228;2022-09-28T03:29:04;19.47;;;14.50;;
50968;SDS011;36982;51.474;7.228;2022-09-28T03:31:30;18.90;;;14.07;;
50968;SDS011;36982;51.474;7.228;2022-09-28T03:33:56;21.73;;;14.70;;
50968;SDS011;36982;51.474;7.228;2022-09-28T03:36:21;21.13;;;15.13;;
50968;SDS011;36982;51.474;7.228;2022-09-28T03:38:47;21.50;;;15.43;;
50968;SDS011;36982;51.474;7.228;2022-09-28T03:41:15;21.80;;;15.37;;
50968;SDS011;36982;51.474;7.228;2022-09-28T03:43:40;19.80;;;14.37;;
50968;SDS011;36982;51.474;7.228;2022-09-28T03:46:06;20.47;;;15.27;;
50968;SDS011;36982;51.474;7.228;2022-09-28T03:48:33;19.60;;;14.50;;
50968;SDS011;36982;51.474;7.228;2022-09-28T03:51:00;26.07;;;16.30;;
50968;SDS011;36982;51.474;7.228;2022-09-28T03:53:28;18.63;;;14.87;;
50968;SDS011;36982;51.474;7.228;2022-09-28T03:55:54;18.27;;;14.13;;
50968;SDS011;36982;51.474;7.228;2022-09-28T03:58:21;20.50;;;15.10;;
50968;SDS011;36982;51.474;7.228;2022-09-28T04:00:47;20.53;;;14.80;;
50968;SDS011;36982;51.474;7.228;2022-09-28T04:03:13;18.10;;;13.97;;
50968;SDS011;36982;51.474;7.228;2022-09-28T04:05:49;19.67;;;14.63;;
50968;SDS011;36982;51.474;7.228;2022-09-28T04:08:19;21.23;;;14.87;;
50968;SDS011;36982;51.474;7.228;2022-09-28T04:10:45;18.50;;;14.00;;
50968;SDS011;36982;51.474;7.228;2022-09-28T04:13:10;17.27;;;13.33;;
50968;SDS011;36982;51.474;7.228;2022-09-28T04:15:36;18.90;;;14.33;;
50968;SDS011;36982;51.474;7.228;2022-09-28T04:18:02;18.17;;;13.60;;
50968;SDS011;36982;51.474;7.228;2022-09-28T04:20:29;21.90;;;14.23;;
50968;SDS011;36982;51.474;7.228;2022-09-28T04:22:56;20.07;;;14.67;;
50968;SDS011;36982;51.474;7.228;2022-09-28T04:25:22;22.00;;;14.37;;
50968;SDS011;36982;51.474;7.228;2022-09-28T04:27:47;21.73;;;14.73;;
50968;SDS011;36982;51.474;7.228;2022-09-28T04:30:32;19.00;;;14.60;;
50968;SDS011;36982;51.474;7.228;2022-09-28T04:32:59;23.57;;;16.37;;
50968;SDS011;36982;51.474;7.228;2022-09-28T04:35:24;22.67;;;15.97;;
50968;SDS011;36982;51.474;7.228;2022-09-28T04:37:50;24.90;;;16.90;;
50968;SDS011;36982;51.474;7.228;2022-09-28T04:40:16;25.57;;;17.77;;
50968;SDS011;36982;51.474;7.228;2022-09-28T04:42:41;25.67;;;17.63;;
50968;SDS011;36982;51.474;7.228;2022-09-28T04:45:07;26.10;;;18.23;;
50968;SDS011;36982;51.474;7.228;2022-09-28T04:47:33;25.40;;;17.37;;
50968;SDS011;36982;51.474;7.228;2022-09-28T04:49:58;26.43;;;18.10;;
50968;SDS011;36982;51.474;7.228;2022-09-28T04:52:24;22.47;;;16.63;;
50968;SDS011;36982;51.474;7.228;2022-09-28T04:54:51;25.17;;;17.63;;
50968;SDS011;36982;51.474;7.228;2022-09-28T04:57:16;23.73;;;16.67;;
50968;SDS011;36982;51.474;7.228;2022-09-28T04:59:42;26.93;;;16.63;;
50968;SDS011;36982;51.474;7.228;2022-09-28T05:02:08;23.03;;;16.90;;
50968;SDS011;36982;51.474;7.228;2022-09-28T05:04:33;26.17;;;17.13;;
50968;SDS011;36982;51.474;7.228;2022-09-28T05:06:59;22.90;;;16.87;;
50968;SDS011;36982;51.474;7.228;2022-09-28T05:09:24;22.83;;;16.40;;
50968;SDS011;36982;51.474;7.228;2022-09-28T05:11:50;20.57;;;15.63;;
50968;SDS011;36982;51.474;7.228;2022-09-28T05:14:17;24.33;;;16.63;;
50968;SDS011;36982;51.474;7.228;2022-09-28T05:16:44;21.17;;;15.33;;
50968;SDS011;36982;51.474;7.228;2022-09-28T05:19:09;24.10;;;16.07;;
50968;SDS011;36982;51.474;7.228;2022-09-28T05:21:35;21.90;;;15.57;;
50968;SDS011;36982;51.474;7.228;2022-09-28T05:24:01;23.47;;;16.87;;
50968;SDS011;36982;51.474;7.228;2022-09-28T05:26:31;23.47;;;16.17;;
50968;SDS011;36982;51.474;7.228;2022-09-28T05:28:57;20.33;;;15.27;;
50968;SDS011;36982;51.474;7.228;2022-09-28T05:31:22;23.57;;;15.87;;
50968;SDS011;36982;51.474;7.228;2022-09-28T05:33:48;20.47;;;15.07;;
50968;SDS011;36982;51.474;7.228;2022-09-28T05:36:14;19.30;;;14.53;;
50968;SDS011;36982;51.474;7.228;2022-09-28T05:38:40;24.73;;;16.47;;
50968;SDS011;36982;51.474;7.228;2022-09-28T05:41:05;21.70;;;15.67;;
50968;SDS011;36982;51.474;7.228;2022-09-28T05:43:31;22.33;;;16.63;;
50968;SDS011;36982;51.474;7.228;2022-09-28T05:45:57;21.60;;;15.40;;
50968;SDS011;36982;51.474;7.228;2022-09-28T05:48:23;20.57;;;15.10;;
50968;SDS011;36982;51.474;7.228;2022-09-28T05:50:50;24.53;;;17.23;;
50968;SDS011;36982;51.474;7.228;2022-09-28T05:53:16;23.23;;;17.40;;
50968;SDS011;36982;51.474;7.228;2022-09-28T05:55:42;21.47;;;16.33;;
50968;SDS011;36982;51.474;7.228;2022-09-28T05:58:07;23.00;;;16.50;;
50968;SDS011;36982;51.474;7.228;2022-09-28T06:00:34;24.57;;;17.17;;
50968;SDS011;36982;51.474;7.228;2022-09-28T06:03:04;22.67;;;17.50;;
50968;SDS011;36982;51.474;7.228;2022-09-28T06:05:32;22.50;;;17.03;;
50968;SDS011;36982;51.474;7.228;2022-09-28T06:08:00;25.37;;;17.77;;
50968;SDS011;36982;51.474;7.228;2022-09-28T06:10:28;24.33;;;17.07;;
50968;SDS011;36982;51.474;7.228;2022-09-28T06:12:54;26.47;;;17.30;;
50968;SDS011;36982;51.474;7.228;2022-09-28T06:15:21;22.80;;;16.97;;
50968;SDS011;36982;51.474;7.228;2022-09-28T06:17:54;25.53;;;17.77;;
50968;SDS011;36982;51.474;7.228;2022-09-28T06:20:21;23.93;;;17.10;;
50968;SDS011;36982;51.474;7.228;2022-09-28T06:22:49;27.77;;;17.17;;
50968;SDS011;36982;51.474;7.228;2022-09-28T06:25:16;23.23;;;16.37;;
50968;SDS011;36982;51.474;7.228;2022-09-28T06:27:42;25.90;;;17.97;;
50968;SDS011;36982;51.474;7.228;2022-09-28T06:30:08;23.77;;;18.07;;
50968;SDS011;36982;51.474;7.228;2022-09-28T06:32:33;22.93;;;17.77;;
50968;SDS011;36982;51.474;7.228;2022-09-28T06:34:59;23.37;;;18.63;;
50968;SDS011;36982;51.474;7.228;2022-09-28T06:37:25;23.77;;;17.67;;
50968;SDS011;36982;51.474;7.228;2022-09-28T06:39:51;23.43;;;17.93;;
50968;SDS011;36982;51.474;7.228;2022-09-28T06:42:18;21.73;;;17.27;;
50968;SDS011;36982;51.474;7.228;2022-09-28T06:44:44;23.37;;;16.83;;
50968;SDS011;36982;51.474;7.228;2022-09-28T06:47:10;23.80;;;16.77;;
50968;SDS011;36982;51.474;7.228;2022-09-28T06:49:35;24.40;;;17.70;;
50968;SDS011;36982;51.474;7.228;2022-09-28T06:52:01;24.57;;;17.83;;
50968;SDS011;36982;51.474;7.228;2022-09-28T06:54:27;24.80;;;18.00;;
50968;SDS011;36982;51.474;7.228;2022-09-28T06:56:52;28.33;;;19.47;;
50968;SDS011;36982;51.474;7.228;2022-09-28T06:59:18;25.13;;;18.87;;
50968;SDS011;36982;51.474;7.228;2022-09-28T07:01:44;24.30;;;18.07;;
50968;SDS011;36982;51.474;7.228;2022-09-28T07:04:09;26.67;;;18.73;;
50968;SDS011;36982;51.474;7.228;2022-09-28T07:06:35;29.07;;;19.33;;
50968;SDS011;36982;51.474;7.228;2022-09-28T07:09:02;30.13;;;19.60;;
50968;SDS011;36982;51.474;7.228;2022-09-28T07:11:30;24.87;;;18.20;;
50968;SDS011;36982;51.474;7.228;2022-09-28T07:14:03;27.50;;;19.73;;
50968;SDS011;36982;51.474;7.228;2022-09-28T07:16:29;27.97;;;20.17;;
50968;SDS011;36982;51.474;7.228;2022-09-28T07:18:55;28.63;;;20.40;;
50968;SDS011;36982;51.474;7.228;2022-09-28T07:21:20;26.90;;;19.37;;
50968;SDS011;36982;51.474;7.228;2022-09-28T07:23:46;26.77;;;19.60;;
50968;SDS011;36982;51.474;7.228;2022-09-28T07:26:12;27.77;;;19.00;;
50968;SDS011;36982;51.474;7.228;2022-09-28T07:28:38;27.87;;;20.67;;
50968;SDS011;36982;51.474;7.228;2022-09-28T07:31:05;28.13;;;20.23;;
50968;SDS011;36982;51.474;7.228;2022-09-28T07:33:31;29.97;;;20.37;;
50968;SDS011;36982;51.474;7.228;2022-09-28T07:35:57;29.37;;;20.90;;
50968;SDS011;36982;51.474;7.228;2022-09-28T07:38:25;32.27;;;21.20;;
50968;SDS011;36982;51.474;7.228;2022-09-28T07:40:51;30.10;;;21.47;;
50968;SDS011;36982;51.474;7.228;2022-09-28T07:43:35;32.17;;;22.77;;
50968;SDS011;36982;51.474;7.228;2022-09-28T07:46:03;32.53;;;22.40;;
50968;SDS011;36982;51.474;7.228;2022-09-28T07:48:35;30.73;;;22.27;;
50968;SDS011;36982;51.474;7.228;2022-09-28T07:51:02;33.37;;;21.90;;
50968;SDS011;36982;51.474;7.228;2022-09-28T07:53:28;33.27;;;22.07;;
50968;SDS011;36982;51.474;7.228;2022-09-28T07:55:58;30.40;;;21.80;;
50968;SDS011;36982;51.474;7.228;2022-09-28T07:58:27;33.13;;;22.40;;
50968;SDS011;36982;51.474;7.228;2022-09-28T08:00:56;33.43;;;21.70;;
50968;SDS011;36982;51.474;7.228;2022-09-28T08:03:25;29.83;;;22.20;;
50968;SDS011;36982;51.474;7.228;2022-09-28T08:05:55;31.60;;;22.17;;
50968;SDS011;36982;51.474;7.228;2022-09-28T08:08:22;32.17;;;22.57;;
50968;SDS011;36982;51.474;7.228;2022-09-28T08:10:48;31.97;;;22.43;;
50968;SDS011;36982;51.474;7.228;2022-09-28T08:13:16;29.27;;;21.83;;
50968;SDS011;36982;51.474;7.228;2022-09-28T08:15:42;30.17;;;21.80;;
50968;SDS011;36982;51.474;7.228;2022-09-28T08:18:07;31.20;;;22.43;;
50968;SDS011;36982;51.474;7.228;2022-09-28T08:20:34;34.27;;;21.97;;
50968;SDS011;36982;51.474;7.228;2022-09-28T08:23:18;29.80;;;21.37;;
50968;SDS011;36982;51.474;7.228;2022-09-28T08:25:45;26.90;;;20.00;;
50968;SDS011;36982;51.474;7.228;2022-09-28T08:28:13;27.53;;;19.67;;
50968;SDS011;36982;51.474;7.228;2022-09-28T08:30:41;23.93;;;18.80;;
50968;SDS011;36982;51.474;7.228;2022-09-28T08:33:08;28.33;;;21.00;;
50968;SDS011;36982;51.474;7.228;2022-09-28T08:35:35;28.10;;;19.50;;
50968;SDS011;36982;51.474;7.228;2022-09-28T08:38:01;27.23;;;19.50;;
50968;SDS011;36982;51.474;7.228;2022-09-28T08:40:27;25.73;;;18.47;;
50968;SDS011;36982;51.474;7.228;2022-09-28T08:42:59;26.10;;;18.67;;
50968;SDS011;36982;51.474;7.228;2022-09-28T08:45:29;24.10;;;18.20;;
50968;SDS011;36982;51.474;7.228;2022-09-28T08:51:00;27.83;;;19.33;;
50968;SDS011;36982;51.474;7.228;2022-09-28T08:53:39;25.50;;;18.77;;
50968;SDS011;36982;51.474;7.228;2022-09-28T08:56:58;27.30;;;19.20;;
50968;SDS011;36982;51.474;7.228;2022-09-28T08:59:10;27.97;;;19.40;;
50968;SDS011;36982;51.474;7.228;2022-09-28T09:01:41;29.13;;;20.73;;
50968;SDS011;36982;51.474;7.228;2022-09-28T09:04:13;22.73;;;17.30;;
50968;SDS011;36982;51.474;7.228;2022-09-28T09:09:37;21.63;;;15.93;;
50968;SDS011;36982;51.474;7.228;2022-09-28T09:12:13;22.33;;;16.57;;
50968;SDS011;36982;51.474;7.228;2022-09-28T09:15:11;22.30;;;15.40;;
50968;SDS011;36982;51.474;7.228;2022-09-28T09:20:16;22.63;;;17.23;;
50968;SDS011;36982;51.474;7.228;2022-09-28T09:25:25;24.17;;;18.40;;
50968;SDS011;36982;51.474;7.228;2022-09-28T09:42:02;24.73;;;19.07;;
50968;SDS011;36982;51.474;7.228;2022-09-28T09:47:12;23.93;;;17.40;;
50968;SDS011;36982;51.474;7.228;2022-09-28T09:52:50;21.93;;;16.10;;
50968;SDS011;36982;51.474;7.228;2022-09-28T09:55:33;21.37;;;15.33;;
50968;SDS011;36982;51.474;7.228;2022-09-28T09:58:07;22.03;;;15.50;;
50968;SDS011;36982;51.474;7.228;2022-09-28T10:00:46;17.53;;;14.73;;
50968;SDS011;36982;51.474;7.228;2022-09-28T10:03:16;20.67;;;15.60;;
50968;SDS011;36982;51.474;7.228;2022-09-28T10:05:56;17.60;;;14.07;;
50968;SDS011;36982;51.474;7.228;2022-09-28T10:08:25;19.20;;;13.20;;
50968;SDS011;36982;51.474;7.228;2022-09-28T10:10:55;14.23;;;12.70;;
50968;SDS011;36982;51.474;7.228;2022-09-28T10:13:48;15.73;;;12.83;;
50968;SDS011;36982;51.474;7.228;2022-09-28T10:16:15;13.37;;;11.40;;
50968;SDS011;36982;51.474;7.228;2022-09-28T10:18:42;20.20;;;10.13;;
50968;SDS011;36982;51.474;7.228;2022-09-28T10:21:15;13.83;;;9.80;;
50968;SDS011;36982;51.474;7.228;2022-09-28T10:23:44;10.87;;;8.27;;
50968;SDS011;36982;51.474;7.228;2022-09-28T10:26:21;11.00;;;8.10;;
50968;SDS011;36982;51.474;7.228;2022-09-28T10:28:55;10.77;;;9.13;;
50968;SDS011;36982;51.474;7.228;2022-09-28T10:31:40;12.97;;;9.30;;
50968;SDS011;36982;51.474;7.228;2022-09-28T10:34:12;12.00;;;8.13;;
50968;SDS011;36982;51.474;7.228;2022-09-28T10:36:54;10.37;;;8.07;;
50968;SDS011;36982;51.474;7.228;2022-09-28T10:39:31;11.03;;;7.27;;
50968;SDS011;36982;51.474;7.228;2022-09-28T10:42:18;7.00;;;6.03;;
50968;SDS011;36982;51.474;7.228;2022-09-28T10:44:56;7.07;;;5.53;;
50968;SDS011;36982;51.474;7.228;2022-09-28T10:47:26;5.97;;;5.37;;
50968;SDS011;36982;51.474;7.228;2022-09-28T10:49:55;6.87;;;5.20;;
50968;SDS011;36982;51.474;7.228;2022-09-28T10:52:38;7.23;;;5.30;;
50968;SDS011;36982;51.474;7.228;2022-09-28T10:55:24;6.77;;;4.77;;
50968;SDS011;36982;51.474;7.228;2022-09-28T10:57:50;7.03;;;5.93;;
50968;SDS011;36982;51.474;7.228;2022-09-28T11:00:28;7.93;;;6.40;;
50968;SDS011;36982;51.474;7.228;2022-09-28T11:02:59;8.60;;;7.70;;
50968;SDS011;36982;51.474;7.228;2022-09-28T11:05:26;11.17;;;9.03;;
50968;SDS011;36982;51.474;7.228;2022-09-28T11:07:52;12.77;;;10.73;;
50968;SDS011;36982;51.474;7.228;2022-09-28T11:10:20;18.33;;;13.33;;
50968;SDS011;36982;51.474;7.228;2022-09-28T11:12:50;12.67;;;11.33;;
50968;SDS011;36982;51.474;7.228;2022-09-28T11:15:18;17.43;;;14.27;;
50968;SDS011;36982;51.474;7.228;2022-09-28T11:17:46;13.73;;;11.60;;
50968;SDS011;36982;51.474;7.228;2022-09-28T11:20:28;13.73;;;11.30;;
50968;SDS011;36982;51.474;7.228;2022-09-28T11:22:59;11.47;;;9.57;;
50968;SDS011;36982;51.474;7.228;2022-09-28T11:25:41;11.50;;;10.30;;
50968;SDS011;36982;51.474;7.228;2022-09-28T11:28:12;14.70;;;10.17;;
50968;SDS011;36982;51.474;7.228;2022-09-28T11:30:55;11.07;;;8.70;;
50968;SDS011;36982;51.474;7.228;2022-09-28T11:33:43;8.67;;;7.83;;
50968;SDS011;36982;51.474;7.228;2022-09-28T11:41:18;10.77;;;8.13;;
50968;SDS011;36982;51.474;7.228;2022-09-28T11:49:24;6.60;;;6.00;;
50968;SDS011;36982;51.474;7.228;2022-09-28T11:52:02;7.27;;;6.37;;
50968;SDS011;36982;51.474;7.228;2022-09-28T11:54:39;7.53;;;6.27;;
50968;SDS011;36982;51.474;7.228;2022-09-28T11:57:10;8.77;;;6.57;;
50968;SDS011;36982;51.474;7.228;2022-09-28T11:59:51;7.80;;;6.57;;
50968;SDS011;36982;51.474;7.228;2022-09-28T12:02:31;7.90;;;5.77;;
50968;SDS011;36982;51.474;7.228;2022-09-28T12:05:21;6.77;;;5.40;;
50968;SDS011;36982;51.474;7.228;2022-09-28T12:07:56;6.20;;;5.57;;
50968;SDS011;36982;51.474;7.228;2022-09-28T12:13:16;7.47;;;6.27;;
50968;SDS011;36982;51.474;7.228;2022-09-28T12:16:03;5.23;;;4.73;;
50968;SDS011;36982;51.474;7.228;2022-09-28T12:18:34;5.27;;;4.77;;
50968;SDS011;36982;51.474;7.228;2022-09-28T12:23:48;5.50;;;5.00;;
50968;SDS011;36982;51.474;7.228;2022-09-28T12:26:24;6.33;;;5.03;;
50968;SDS011;36982;51.474;7.228;2022-09-28T12:29:12;4.37;;;3.93;;
50968;SDS011;36982;51.474;7.228;2022-09-28T12:31:50;6.50;;;4.37;;
50968;SDS011;36982;51.474;7.228;2022-09-28T12:34:21;4.53;;;4.13;;
50968;SDS011;36982;51.474;7.228;2022-09-28T12:36:55;4.17;;;3.70;;
50968;SDS011;36982;51.474;7.228;2022-09-28T12:39:43;5.07;;;3.50;;
50968;SDS011;36982;51.474;7.228;2022-09-28T12:43:31;4.77;;;3.70;;
50968;SDS011;36982;51.474;7.228;2022-09-28T13:05:21;6.27;;;4.50;;
50968;SDS011;36982;51.474;7.228;2022-09-28T13:10:49;4.67;;;4.20;;
50968;SDS011;36982;51.474;7.228;2022-09-28T13:19:19;4.60;;;4.20;;
50968;SDS011;36982;51.474;7.228;2022-09-28T13:22:14;5.40;;;4.10;;
50968;SDS011;36982;51.474;7.228;2022-09-28T13:25:02;5.43;;;4.40;;
50968;SDS011;36982;51.474;7.228;2022-09-28T13:27:36;4.87;;;4.23;;
50968;SDS011;36982;51.474;7.228;2022-09-28T13:30:04;4.30;;;3.90;;
50968;SDS011;36982;51.474;7.228;2022-09-28T13:32:31;4.63;;;3.90;;
50968;SDS011;36982;51.474;7.228;2022-09-28T13:35:00;5.77;;;3.67;;
50968;SDS011;36982;51.474;7.228;2022-09-28T13:37:26;5.33;;;4.20;;
50968;SDS011;36982;51.474;7.228;2022-09-28T13:39:58;4.77;;;4.27;;
50968;SDS011;36982;51.474;7.228;2022-09-28T13:50:50;3.53;;;2.90;;
50968;SDS011;36982;51.474;7.228;2022-09-28T14:01:40;3.57;;;2.83;;
50968;SDS011;36982;51.474;7.228;2022-09-28T14:04:19;4.40;;;3.07;;
50968;SDS011;36982;51.474;7.228;2022-09-28T14:06:53;5.73;;;3.33;;
50968;SDS011;36982;51.474;7.228;2022-09-28T14:09:41;4.53;;;3.00;;
50968;SDS011;36982;51.474;7.228;2022-09-28T14:12:42;3.57;;;3.27;;
50968;SDS011;36982;51.474;7.228;2022-09-28T14:17:57;3.77;;;2.93;;
50968;SDS011;36982;51.474;7.228;2022-09-28T14:20:25;3.57;;;3.27;;
50968;SDS011;36982;51.474;7.228;2022-09-28T14:23:03;4.20;;;3.70;;
50968;SDS011;36982;51.474;7.228;2022-09-28T14:25:45;3.43;;;3.13;;
50968;SDS011;36982;51.474;7.228;2022-09-28T14:31:39;2.90;;;2.60;;
50968;SDS011;36982;51.474;7.228;2022-09-28T14:34:20;3.67;;;2.37;;
50968;SDS011;36982;51.474;7.228;2022-09-28T14:36:49;3.90;;;2.47;;
50968;SDS011;36982;51.474;7.228;2022-09-28T14:39:33;4.23;;;2.27;;
50968;SDS011;36982;51.474;7.228;2022-09-28T14:42:33;3.80;;;2.13;;
50968;SDS011;36982;51.474;7.228;2022-09-28T14:48:02;4.03;;;2.60;;
50968;SDS011;36982;51.474;7.228;2022-09-28T14:53:20;4.20;;;2.57;;
50968;SDS011;36982;51.474;7.228;2022-09-28T14:55:50;4.47;;;2.63;;
50968;SDS011;36982;51.474;7.228;2022-09-28T14:58:21;2.83;;;2.10;;
50968;SDS011;36982;51.474;7.228;2022-09-28T15:00:54;2.60;;;2.40;;
50968;SDS011;36982;51.474;7.228;2022-09-28T15:03:25;3.57;;;3.00;;
50968;SDS011;36982;51.474;7.228;2022-09-28T15:05:53;5.30;;;4.60;;
50968;SDS011;36982;51.474;7.228;2022-09-28T15:08:19;6.43;;;4.83;;
50968;SDS011;36982;51.474;7.228;2022-09-28T15:10:47;7.03;;;4.80;;
50968;SDS011;36982;51.474;7.228;2022-09-28T15:13:24;3.83;;;3.10;;
50968;SDS011;36982;51.474;7.228;2022-09-28T15:16:10;3.03;;;2.73;;
50968;SDS011;36982;51.474;7.228;2022-09-28T15:21:12;3.77;;;2.70;;
50968;SDS011;36982;51.474;7.228;2022-09-28T15:23:40;3.50;;;2.30;;
50968;SDS011;36982;51.474;7.228;2022-09-28T15:26:18;2.50;;;2.30;;
50968;SDS011;36982;51.474;7.228;2022-09-28T15:28:46;2.33;;;2.13;;
50968;SDS011;36982;51.474;7.228;2022-09-28T15:33:59;4.33;;;2.60;;
50968;SDS011;36982;51.474;7.228;2022-09-28T15:36:43;3.17;;;2.03;;
50968;SDS011;36982;51.474;7.228;2022-09-28T15:41:42;4.00;;;2.37;;
50968;SDS011;36982;51.474;7.228;2022-09-28T15:46:58;2.87;;;2.50;;
50968;SDS011;36982;51.474;7.228;2022-09-28T15:52:31;2.40;;;2.20;;
50968;SDS011;36982;51.474;7.228;2022-09-28T15:55:00;2.50;;;2.17;;
50968;SDS011;36982;51.474;7.228;2022-09-28T15:57:37;2.03;;;1.93;;
50968;SDS011;36982;51.474;7.228;2022-09-28T16:00:05;2.60;;;2.17;;
50968;SDS011;36982;51.474;7.228;2022-09-28T16:08:12;2.20;;;2.00;;
50968;SDS011;36982;51.474;7.228;2022-09-28T16:13:17;2.00;;;1.80;;
50968;SDS011;36982;51.474;7.228;2022-09-28T16:15:44;2.10;;;1.80;;
50968;SDS011;36982;51.474;7.228;2022-09-28T16:20:43;2.17;;;1.70;;
50968;SDS011;36982;51.474;7.228;2022-09-28T16:23:26;1.73;;;1.13;;
50968;SDS011;36982;51.474;7.228;2022-09-28T16:29:03;1.83;;;1.57;;
50968;SDS011;36982;51.474;7.228;2022-09-28T16:36:17;2.50;;;1.70;;
50968;SDS011;36982;51.474;7.228;2022-09-28T16:38:44;1.83;;;1.40;;
50968;SDS011;36982;51.474;7.228;2022-09-28T16:41:10;2.70;;;1.70;;
50968;SDS011;36982;51.474;7.228;2022-09-28T16:43:36;2.37;;;1.40;;
50968;SDS011;36982;51.474;7.228;2022-09-28T16:46:09;1.83;;;1.40;;
50968;SDS011;36982;51.474;7.228;2022-09-28T16:48:39;2.73;;;1.63;;
50968;SDS011;36982;51.474;7.228;2022-09-28T16:51:12;1.40;;;1.27;;
50968;SDS011;36982;51.474;7.228;2022-09-28T16:53:38;1.43;;;1.33;;
50968;SDS011;36982;51.474;7.228;2022-09-28T16:56:22;1.90;;;1.50;;
50968;SDS011;36982;51.474;7.228;2022-09-28T16:58:48;2.43;;;1.63;;
50968;SDS011;36982;51.474;7.228;2022-09-28T17:01:14;1.77;;;1.57;;
50968;SDS011;36982;51.474;7.228;2022-09-28T17:03:40;2.03;;;1.70;;
50968;SDS011;36982;51.474;7.228;2022-09-28T17:06:10;4.03;;;1.20;;
50968;SDS011;36982;51.474;7.228;2022-09-28T17:08:36;3.03;;;2.00;;
50968;SDS011;36982;51.474;7.228;2022-09-28T17:11:02;2.17;;;1.60;;
50968;SDS011;36982;51.474;7.228;2022-09-28T17:13:29;3.40;;;1.50;;
50968;SDS011;36982;51.474;7.228;2022-09-28T17:16:00;3.77;;;1.87;;
50968;SDS011;36982;51.474;7.228;2022-09-28T17:18:30;2.80;;;1.70;;
50968;SDS011;36982;51.474;7.228;2022-09-28T17:20:56;2.60;;;1.60;;
50968;SDS011;36982;51.474;7.228;2022-09-28T17:23:26;4.80;;;2.00;;
50968;SDS011;36982;51.474;7.228;2022-09-28T17:25:51;3.13;;;1.73;;
50968;SDS011;36982;51.474;7.228;2022-09-28T17:28:20;5.23;;;3.13;;
50968;SDS011;36982;51.474;7.228;2022-09-28T17:30:48;3.60;;;2.07;;
50968;SDS011;36982;51.474;7.228;2022-09-28T17:33:13;3.50;;;1.90;;
50968;SDS011;36982;51.474;7.228;2022-09-28T17:35:39;9.63;;;2.50;;
50968;SDS011;36982;51.474;7.228;2022-09-28T17:38:07;3.97;;;1.80;;
50968;SDS011;36982;51.474;7.228;2022-09-28T17:40:35;2.77;;;1.60;;
50968;SDS011;36982;51.474;7.228;2022-09-28T17:43:01;4.13;;;2.10;;
50968;SDS011;36982;51.474;7.228;2022-09-28T17:45:29;4.03;;;1.90;;
50968;SDS011;36982;51.474;7.228;2022-09-28T17:47:55;5.73;;;2.17;;
50968;SDS011;36982;51.474;7.228;2022-09-28T17:50:28;4.30;;;2.03;;
50968;SDS011;36982;51.474;7.228;2022-09-28T17:52:56;3.30;;;1.67;;